Aurora, Indiana
Current Conditions -  °F | °C
As of 3:52 AM on Saturday 25 Oct 2014 (Local Time) from KCVG Reporting Station
Broken Clouds Broken Clouds  
Wind Chill: 45°   Ceiling: 25000
Heat Index: 47°   Visibility: 8mi
Dew Point: 42°   Wind: 5mph
Humidity: 83%   Direction: 200°SSW
Pressure: 30.03"   Gusts: NA
Location:  39.06°N, 84.9°W
Report Text: KCVG 250752Z 20004KT 8SM BKN250 08/06 A3003 RMK AO2 SLP164 T00830056
Loading
Personal Weather Stations






























Interactive Weather Map
Tropical Storm Tracking
New forecast layout! Learn more

10-Day Weather Forecast

Advertisements
Track Severe Weather on mobile